Time;durP1;ratioP1;P1;durP2;ratioP2;P2;SDS_P1;SDS_P2;PMS_P1;PMS_P2;Temp;Humidity;BMP_temperature;BMP_pressure;BME280_temperature;BME280_humidity;BME280_pressure;Samples;Min_cycle;Max_cycle;Signal;HPM_P1;HPM_P2
2022/02/12 00:02:11;;;;;;;0.70;0.70;;;-3.10;1.40;;;-2.66;100.00;96898.19;647650;216;31566;-75
2022/02/12 00:04:52;;;;;;;0.60;0.60;;;-3.20;1.40;;;-2.76;100.00;96892.48;618949;226;32694;-77
2022/02/12 00:07:34;;;;;;;1.20;0.90;;;-3.30;1.40;;;-2.74;100.00;96891.67;636184;216;31643;-76
2022/02/12 00:10:20;;;;;;;1.10;0.68;;;-3.40;1.40;;;-2.73;100.00;96892.09;646982;216;31541;-76
2022/02/12 00:13:07;;;;;;;1.20;1.10;;;-3.20;1.40;;;-2.59;100.00;96890.49;647381;216;31535;-75
2022/02/12 00:15:44;;;;;;;0.50;0.50;;;-2.90;1.40;;;-2.49;100.00;96882.79;647560;216;31605;-75
2022/02/12 00:18:28;;;;;;;1.00;0.70;;;-2.80;1.40;;;-2.44;100.00;96879.13;647579;216;31530;-76
2022/02/12 00:21:10;;;;;;;1.30;0.90;;;-2.80;1.40;;;-2.53;100.00;96881.19;646930;212;31624;-76
2022/02/12 00:23:53;;;;;;;0.65;0.65;;;-3.10;1.40;;;-2.67;100.00;96881.68;620030;226;32082;-76
2022/02/12 00:26:35;;;;;;;0.40;0.40;;;-3.10;1.40;;;-2.56;100.00;96875.68;646810;216;31504;-76
2022/02/12 00:29:16;;;;;;;0.70;0.70;;;-2.80;1.40;;;-2.51;100.00;96872.41;619414;222;32081;-75
2022/02/12 00:31:58;;;;;;;1.10;1.10;;;-2.70;1.40;;;-2.50;100.00;96873.79;647410;212;31556;-76
2022/02/12 00:35:51;;;;;;;1.42;1.05;;;-2.70;1.40;;;-2.68;100.00;96863.94;646728;212;31561;-76
2022/02/12 00:38:33;;;;;;;0.75;0.68;;;-3.00;1.40;;;-2.77;100.00;96859.48;620524;226;31831;-76
2022/02/12 00:41:15;;;;;;;1.30;1.00;;;-3.10;1.40;;;-2.75;100.00;96857.97;647113;212;31525;-76
2022/02/12 00:44:00;;;;;;;0.40;0.40;;;-3.10;1.40;;;-2.77;100.00;96860.34;646163;216;32648;-76
2022/02/12 00:46:41;;;;;;;0.50;0.50;;;-3.10;1.40;;;-2.78;100.00;96862.47;646411;212;32067;-76
2022/02/12 00:49:23;;;;;;;0.60;0.47;;;-3.10;1.40;;;-2.87;100.00;96857.38;619814;226;32034;-76
2022/02/12 00:52:05;;;;;;;0.85;0.50;;;-3.20;1.40;;;-2.88;100.00;96851.28;620398;226;31867;-76
2022/02/12 00:54:47;;;;;;;0.70;0.70;;;-3.20;1.40;;;-2.92;100.00;96853.34;621323;226;31997;-76
2022/02/12 00:57:31;;;;;;;0.80;0.70;;;-3.40;1.40;;;-2.89;100.00;96851.81;648955;216;31512;-76
2022/02/12 01:00:11;;;;;;;1.30;0.40;;;-3.40;1.40;;;-2.90;100.00;96858.84;647747;216;31565;-76
2022/02/12 01:02:53;;;;;;;1.40;0.80;;;-3.20;1.40;;;-2.74;100.00;96857.98;647993;212;31515;-76
2022/02/12 01:05:34;;;;;;;0.75;0.75;;;-3.00;1.40;;;-2.79;100.00;96859.18;646090;216;31761;-76
2022/02/12 01:08:16;;;;;;;0.65;0.60;;;-3.10;1.40;;;-2.86;100.00;96857.61;646970;212;31479;-76
2022/02/12 01:10:58;;;;;;;0.50;0.43;;;-3.30;1.40;;;-2.98;100.00;96861.72;647048;212;32145;-76
2022/02/12 01:13:39;;;;;;;1.00;0.80;;;-3.70;1.40;;;-3.17;100.00;96856.86;618984;226;32175;-77
2022/02/12 01:16:25;;;;;;;0.50;0.50;;;-3.90;1.40;;;-3.38;100.00;96859.66;646223;212;32050;-76
2022/02/12 01:19:08;;;;;;;1.27;1.17;;;-3.90;1.40;;;-3.45;100.00;96862.44;646336;216;31546;-77
2022/02/12 01:21:49;;;;;;;1.00;0.90;;;-3.90;1.40;;;-3.46;100.00;96865.34;645906;216;31606;-77
2022/02/12 01:24:31;;;;;;;1.00;1.00;;;-3.80;1.40;;;-3.27;100.00;96855.72;646825;216;31613;-76
2022/02/12 01:27:16;;;;;;;0.70;0.40;;;-3.50;1.40;;;-3.14;100.00;96861.98;647666;216;31626;-76
2022/02/12 01:29:58;;;;;;;0.60;0.60;;;-3.30;1.40;;;-3.08;100.00;96863.28;647992;212;31490;-76
2022/02/12 01:35:52;;;;;;;1.50;0.60;;;-3.40;1.40;;;-3.10;100.00;96844.52;648072;216;31573;-76
2022/02/12 01:38:34;;;;;;;0.50;0.47;;;-3.40;1.40;;;-3.10;100.00;96840.45;646659;216;31481;-77
2022/02/12 01:41:18;;;;;;;0.45;0.45;;;-3.50;1.40;;;-3.15;100.00;96843.03;647863;212;31523;-77
2022/02/12 01:44:10;;;;;;;3.70;0.60;;;-3.60;1.40;;;-3.29;100.00;96842.97;646033;216;31642;-77
2022/02/12 01:46:52;;;;;;;0.60;0.40;;;-3.60;1.40;;;-3.24;100.00;96837.65;620038;225;32776;-75
2022/02/12 01:49:34;;;;;;;0.60;0.60;;;-3.50;1.40;;;-3.15;100.00;96837.94;647981;216;31494;-76
2022/02/12 01:52:16;;;;;;;1.90;1.10;;;-3.50;1.40;;;-3.20;100.00;96835.85;647480;216;31485;-77
2022/02/12 01:54:58;;;;;;;0.40;0.40;;;-3.60;1.40;;;-3.19;100.00;96835.87;646955;212;31489;-77
2022/02/12 01:57:40;;;;;;;0.50;0.50;;;-3.50;1.40;;;-3.04;100.00;96830.30;648305;212;32006;-76
2022/02/12 02:00:22;;;;;;;0.40;0.30;;;-3.30;1.40;;;-3.01;100.00;96816.06;647317;212;42117;-76
2022/02/12 02:03:06;;;;;;;0.93;0.93;;;-3.30;1.40;;;-3.09;100.00;96813.92;646490;212;32101;-76
2022/02/12 02:05:48;;;;;;;1.00;0.75;;;-3.40;1.40;;;-3.14;100.00;96814.00;644788;212;31724;-76
2022/02/12 02:08:30;;;;;;;3.10;0.95;;;-3.40;1.40;;;-3.13;100.00;96807.73;647039;212;31507;-75
2022/02/12 02:13:46;;;;;;;0.50;0.40;;;-3.40;1.40;;;-3.14;100.00;96803.59;646406;212;32620;-76
2022/02/12 02:16:28;;;;;;;0.52;0.52;;;-3.50;1.40;;;-3.28;100.00;96807.61;646834;212;31503;-76
2022/02/12 02:19:10;;;;;;;0.40;0.30;;;-3.60;1.40;;;-3.28;100.00;96795.20;618979;222;31928;-76
2022/02/12 02:21:55;;;;;;;0.40;0.40;;;-3.60;1.40;;;-3.24;100.00;96796.67;647055;216;31505;-76
2022/02/12 02:24:39;;;;;;;2.30;0.80;;;-3.50;1.40;;;-3.34;100.00;96801.36;618791;226;31872;-75
2022/02/12 02:27:22;;;;;;;0.90;0.60;;;-3.70;1.40;;;-3.37;100.00;96796.62;632499;221;31773;-76
2022/02/12 02:32:37;;;;;;;0.47;0.43;;;-3.70;1.40;;;-3.32;100.00;96791.75;619951;222;42846;-76
2022/02/12 02:35:51;;;;;;;0.60;0.60;;;-3.70;1.40;;;-3.41;100.00;96789.55;647870;216;31538;-76
2022/02/12 02:38:32;;;;;;;0.70;0.60;;;-3.80;1.40;;;-3.51;100.00;96787.28;647876;212;31640;-76
2022/02/12 02:41:14;;;;;;;0.60;0.60;;;-4.00;1.40;;;-3.57;100.00;96794.98;647767;212;42142;-76
2022/02/12 02:43:57;;;;;;;1.10;0.50;;;-4.20;1.40;;;-3.66;100.00;96793.29;647384;216;31568;-76
2022/02/12 02:46:38;;;;;;;0.43;0.40;;;-4.20;1.40;;;-3.73;100.00;96788.56;620128;226;42530;-76
2022/02/12 02:49:20;;;;;;;0.62;0.62;;;-4.20;1.40;;;-3.77;100.00;96789.36;646554;216;31512;-76
2022/02/12 02:57:38;;;;;;;0.50;0.40;;;-4.20;1.40;;;-3.88;100.00;96793.61;648130;216;31469;-76
2022/02/12 03:00:18;;;;;;;0.70;0.50;;;-4.10;1.40;;;-3.77;100.00;96791.95;648386;216;31505;-76
2022/02/12 03:03:00;;;;;;;0.60;0.60;;;-4.10;1.40;;;-3.75;100.00;96788.60;647082;216;31504;-77
2022/02/12 03:05:41;;;;;;;0.40;0.40;;;-4.20;1.40;;;-3.82;100.00;96788.61;646407;216;31696;-76
2022/02/12 03:08:23;;;;;;;0.90;0.90;;;-4.30;1.40;;;-3.83;100.00;96781.70;647534;216;31558;-76
2022/02/12 03:11:05;;;;;;;0.70;0.70;;;-4.40;1.40;;;-3.96;100.00;96775.94;647660;216;31591;-76
2022/02/12 03:13:46;;;;;;;1.10;1.00;;;-4.50;1.40;;;-4.09;100.00;96779.35;647540;216;31683;-76
2022/02/12 03:16:31;;;;;;;0.50;0.50;;;-4.60;1.40;;;-4.11;100.00;96780.14;648097;216;31524;-77
2022/02/12 03:19:14;;;;;;;3.17;1.17;;;-4.50;1.40;;;-4.26;100.00;96770.78;647913;216;31510;-75
2022/02/12 03:21:55;;;;;;;1.37;1.27;;;-4.60;1.40;;;-4.21;100.00;96767.20;646978;216;31596;-76
2022/02/12 03:24:37;;;;;;;1.00;1.00;;;-4.60;1.40;;;-4.25;100.00;96777.95;647275;212;31569;-76
2022/02/12 03:27:19;;;;;;;1.10;0.52;;;-4.60;1.40;;;-4.19;100.00;96772.05;647497;216;31513;-76
2022/02/12 03:30:01;;;;;;;0.70;0.50;;;-4.60;1.40;;;-4.07;100.00;96769.87;647058;216;31558;-76
2022/02/12 03:32:42;;;;;;;0.40;0.30;;;-4.50;1.40;;;-4.05;100.00;96765.20;647956;216;32095;-76
2022/02/12 03:35:53;;;;;;;1.15;1.05;;;-4.60;1.40;;;-4.02;100.00;96761.53;645863;216;31569;-76
2022/02/12 03:38:33;;;;;;;0.60;0.50;;;-4.30;1.40;;;-4.01;100.00;96769.54;647478;213;31542;-76
2022/02/12 03:41:14;;;;;;;4.12;1.42;;;-4.40;1.40;;;-4.07;100.00;96761.73;647640;216;42877;-76
2022/02/12 03:43:56;;;;;;;1.30;0.80;;;-4.50;1.40;;;-4.20;100.00;96754.52;648174;212;31565;-76
2022/02/12 03:46:38;;;;;;;0.40;0.40;;;-4.50;1.40;;;-4.06;100.00;96750.63;645530;216;31573;-76
2022/02/12 03:49:19;;;;;;;0.60;0.50;;;-4.30;1.40;;;-3.99;100.00;96749.48;621099;222;31895;-75
2022/02/12 03:52:01;;;;;;;0.65;0.52;;;-4.30;1.40;;;-4.04;100.00;96742.52;650430;216;31468;-76
2022/02/12 03:54:43;;;;;;;1.17;1.08;;;-4.40;1.40;;;-4.10;100.00;96745.70;645025;216;42146;-76
2022/02/12 04:00:00;;;;;;;0.60;0.60;;;-4.60;1.40;;;-4.27;100.00;96738.13;621790;222;32438;-76
2022/02/12 04:02:43;;;;;;;1.35;0.95;;;-4.70;1.40;;;-4.25;100.00;96736.19;654949;216;31501;-76
2022/02/12 04:05:26;;;;;;;0.90;0.50;;;-4.70;1.40;;;-4.16;100.00;96733.95;649639;216;31485;-77
2022/02/12 04:08:07;;;;;;;0.50;0.50;;;-4.60;1.40;;;-4.13;100.00;96728.22;646598;218;31651;-76
2022/02/12 04:10:52;;;;;;;0.70;0.70;;;-4.60;1.40;;;-4.19;100.00;96726.83;651715;216;31511;-76
2022/02/12 04:13:36;;;;;;;0.40;0.30;;;-4.60;1.40;;;-4.18;100.00;96721.02;617764;222;31970;-76
2022/02/12 04:16:16;;;;;;;0.80;0.50;;;-4.70;1.40;;;-4.26;100.00;96711.94;651703;212;31535;-76
2022/02/12 04:18:58;;;;;;;0.45;0.45;;;-4.80;1.40;;;-4.34;100.00;96713.58;628109;222;31887;-75
2022/02/12 04:21:39;;;;;;;0.90;0.40;;;-4.90;1.40;;;-4.50;100.00;96716.80;655371;212;42251;-76
2022/02/12 04:24:21;;;;;;;0.40;0.40;;;-4.90;1.40;;;-4.52;100.00;96713.39;652914;212;32147;-76
2022/02/12 04:27:03;;;;;;;1.00;0.90;;;-4.80;1.40;;;-4.44;100.00;96703.69;645355;212;31712;-76
2022/02/12 04:29:46;;;;;;;0.50;0.50;;;-4.70;1.40;;;-4.48;100.00;96703.98;646744;216;31587;-77
2022/02/12 04:32:27;;;;;;;0.60;0.60;;;-4.80;1.40;;;-4.62;100.00;96707.11;648077;216;42091;-76
2022/02/12 04:35:51;;;;;;;1.87;0.85;;;-5.10;1.40;;;-4.76;100.00;96704.42;648311;216;31578;-76
2022/02/12 04:38:32;;;;;;;0.50;0.50;;;-5.20;1.40;;;-4.75;100.00;96707.21;647061;216;31517;-76
2022/02/12 04:41:14;;;;;;;2.80;0.70;;;-5.20;1.40;;;-4.76;100.00;96706.55;654286;212;32287;-76
2022/02/12 04:43:56;;;;;;;0.75;0.55;;;-5.30;1.40;;;-4.87;100.00;96710.16;644528;216;31461;-76
2022/02/12 04:46:38;;;;;;;0.60;0.60;;;-5.30;1.40;;;-4.85;100.00;96707.77;644325;216;31549;-76
2022/02/12 04:49:22;;;;;;;0.40;0.40;;;-5.30;1.40;;;-4.85;100.00;96709.59;645991;216;42158;-76
2022/02/12 04:52:01;;;;;;;0.40;0.40;;;-5.30;1.40;;;-4.88;100.00;96711.70;648673;212;31492;-75
2022/02/12 04:54:43;;;;;;;0.60;0.60;;;-5.30;1.40;;;-4.87;100.00;96706.83;646698;212;42162;-76
2022/02/12 04:57:24;;;;;;;0.70;0.70;;;-5.30;1.40;;;-4.96;100.00;96712.33;650168;216;42294;-76
2022/02/12 05:00:08;;;;;;;0.50;0.40;;;-5.40;1.40;;;-4.91;100.00;96700.87;648034;216;31505;-75
2022/02/12 05:02:49;;;;;;;0.40;0.30;;;-5.40;1.40;;;-4.81;100.00;96698.94;652495;216;31568;-76
2022/02/12 05:05:31;;;;;;;0.70;0.60;;;-5.40;1.40;;;-4.91;100.00;96697.23;644509;216;42001;-76
2022/02/12 05:08:13;;;;;;;0.90;0.68;;;-5.50;1.40;;;-5.00;100.00;96689.72;650071;216;31552;-76
2022/02/12 05:10:55;;;;;;;2.00;0.70;;;-5.60;1.40;;;-5.05;100.00;96686.46;649882;213;42221;-77
2022/02/12 05:13:37;;;;;;;1.20;0.80;;;-5.70;1.40;;;-5.11;100.00;96683.39;617589;226;42529;-75
2022/02/12 05:16:18;;;;;;;0.75;0.40;;;-5.60;1.40;;;-5.21;100.00;96686.20;650583;216;42151;-76
2022/02/12 05:19:00;;;;;;;0.40;0.30;;;-5.60;1.40;;;-5.21;100.00;96678.84;654949;212;31609;-76
2022/02/12 05:21:46;;;;;;;0.50;0.50;;;-5.70;1.40;;;-5.26;100.00;96686.83;651105;212;31459;-76
2022/02/12 05:24:27;;;;;;;0.40;0.40;;;-5.70;1.40;;;-5.37;100.00;96679.81;642376;217;31495;-76
2022/02/12 05:27:10;;;;;;;0.70;0.70;;;-5.80;1.40;;;-5.44;100.00;96676.82;652731;212;42103;-76
2022/02/12 05:29:51;;;;;;;0.40;0.40;;;-5.90;1.40;;;-5.50;100.00;96679.17;650854;212;32075;-76
2022/02/12 05:32:33;;;;;;;1.00;0.50;;;-5.90;1.40;;;-5.56;100.00;96678.23;618373;222;31825;-76
2022/02/12 05:35:51;;;;;;;0.40;0.30;;;-5.90;1.40;;;-5.56;100.00;96675.85;649518;216;31555;-76
2022/02/12 05:38:33;;;;;;;0.60;0.50;;;-5.90;1.40;;;-5.57;100.00;96670.35;651198;212;31566;-76
2022/02/12 05:41:16;;;;;;;1.00;0.50;;;-5.90;1.40;;;-5.57;100.00;96673.20;649062;216;31579;-75
2022/02/12 05:43:58;;;;;;;0.40;0.30;;;-5.80;1.40;;;-5.61;100.00;96668.92;646771;216;31531;-76
2022/02/12 05:46:40;;;;;;;0.50;0.40;;;-5.90;1.40;;;-5.62;100.00;96668.28;648450;216;42195;-76
2022/02/12 05:49:21;;;;;;;1.30;0.77;;;-6.00;1.40;;;-5.58;100.00;96667.63;644391;216;31521;-74
2022/02/12 05:52:04;;;;;;;0.75;0.75;;;-5.90;1.40;;;-5.59;100.00;96669.09;654131;216;31518;-76
2022/02/12 05:54:46;;;;;;;3.80;0.90;;;-6.00;1.40;;;-5.63;100.00;96668.40;651311;212;31510;-76
2022/02/12 05:57:31;;;;;;;0.70;0.50;;;-6.10;1.40;;;-5.56;100.00;96676.91;645304;216;42154;-76
2022/02/12 06:00:15;;;;;;;1.30;0.70;;;-6.00;1.40;;;-5.55;100.00;96673.77;619477;226;32039;-75
2022/02/12 06:02:58;;;;;;;0.70;0.40;;;-5.80;1.40;;;-5.34;100.00;96669.05;648111;212;31563;-76
2022/02/12 06:05:39;;;;;;;0.65;0.57;;;-5.70;1.40;;;-5.46;100.00;96666.47;648858;212;31582;-76
2022/02/12 06:08:21;;;;;;;0.90;0.50;;;-5.90;1.40;;;-5.45;100.00;96661.97;650118;216;31503;-76
2022/02/12 06:11:04;;;;;;;0.90;0.50;;;-5.80;1.40;;;-5.42;100.00;96665.43;652201;216;31538;-76
2022/02/12 06:13:45;;;;;;;0.50;0.40;;;-5.90;1.40;;;-5.48;100.00;96665.69;646272;212;31520;-75
2022/02/12 06:16:27;;;;;;;0.62;0.37;;;-6.00;1.40;;;-5.48;100.00;96666.80;654856;212;32039;-76
2022/02/12 06:19:08;;;;;;;2.00;0.60;;;-5.90;1.40;;;-5.31;100.00;96660.36;648446;216;31482;-76
2022/02/12 06:21:50;;;;;;;1.00;1.00;;;-5.80;1.40;;;-5.38;100.00;96661.70;637642;221;32412;-75
2022/02/12 06:24:33;;;;;;;0.70;0.70;;;-5.90;1.40;;;-5.42;100.00;96662.55;653497;212;32473;-76
2022/02/12 06:27:15;;;;;;;0.60;0.60;;;-5.90;1.40;;;-5.46;100.00;96660.11;648582;216;42100;-76
2022/02/12 06:29:56;;;;;;;0.80;0.57;;;-5.90;1.40;;;-5.46;100.00;96660.52;648215;216;31488;-75
2022/02/12 06:32:38;;;;;;;0.55;0.45;;;-5.90;1.40;;;-5.51;100.00;96650.38;649449;212;31563;-76
2022/02/12 06:35:51;;;;;;;0.70;0.57;;;-5.90;1.40;;;-5.57;100.00;96651.92;644649;216;31742;-75
2022/02/12 06:38:33;;;;;;;0.40;0.30;;;-6.00;1.40;;;-5.47;100.00;96654.23;647968;216;31620;-76
2022/02/12 06:41:14;;;;;;;0.60;0.60;;;-5.80;1.40;;;-5.41;100.00;96640.23;651594;216;31589;-76
2022/02/12 06:43:56;;;;;;;0.40;0.35;;;-5.70;1.40;;;-5.37;100.00;96641.50;648138;216;31526;-77
2022/02/12 06:46:38;;;;;;;0.40;0.40;;;-5.70;1.40;;;-5.28;100.00;96641.48;650448;216;31685;-76
2022/02/12 06:49:23;;;;;;;0.80;0.80;;;-5.70;1.40;;;-5.30;100.00;96643.28;646332;216;31558;-76
2022/02/12 06:52:04;;;;;;;7.68;0.65;;;-5.60;1.40;;;-5.24;100.00;96649.02;624169;226;42512;-75
2022/02/12 06:54:46;;;;;;;1.10;0.40;;;-5.60;1.40;;;-5.12;100.00;96648.14;645638;212;31758;-76
2022/02/12 06:57:28;;;;;;;0.50;0.40;;;-5.50;1.40;;;-5.09;100.00;96645.33;619444;222;31878;-76
2022/02/12 07:00:11;;;;;;;1.15;1.05;;;-5.60;1.40;;;-4.92;100.00;96638.27;652319;216;42728;-76
2022/02/12 07:02:53;;;;;;;1.30;1.30;;;-5.50;1.40;;;-4.87;100.00;96638.52;649216;216;31531;-75
2022/02/12 07:05:35;;;;;;;4.90;2.20;;;-5.30;1.40;;;-4.73;100.00;96635.51;647729;212;31759;-76
2022/02/12 07:08:16;;;;;;;1.10;0.60;;;-5.20;1.40;;;-4.56;100.00;96638.66;646416;216;43355;-75
2022/02/12 07:10:58;;;;;;;0.60;0.50;;;-5.10;1.40;;;-4.57;100.00;96628.47;649548;217;42145;-75
2022/02/12 07:13:39;;;;;;;0.40;0.40;;;-5.10;1.40;;;-4.47;100.00;96632.56;650599;216;42161;-75
2022/02/12 07:16:21;;;;;;;1.00;0.90;;;-5.00;1.40;;;-4.39;100.00;96630.49;645242;212;31517;-76
2022/02/12 07:19:05;;;;;;;0.80;0.60;;;-4.90;1.40;;;-4.18;100.00;96631.33;653823;216;31568;-75
2022/02/12 07:21:47;;;;;;;0.43;0.40;;;-4.70;1.40;;;-3.99;100.00;96624.61;649809;216;31643;-76
2022/02/12 07:24:32;;;;;;;0.90;0.90;;;-4.50;1.40;;;-3.77;100.00;96626.62;618276;226;31881;-75
2022/02/12 07:27:19;;;;;;;1.00;0.90;;;-4.30;1.40;;;-3.58;100.00;96619.56;647461;212;31555;-76
2022/02/12 07:30:04;;;;;;;1.30;0.65;;;-4.00;1.40;;;-3.03;100.00;96615.20;649398;216;31530;-76
2022/02/12 07:32:46;;;;;;;0.90;0.70;;;-3.30;1.40;;;-2.80;100.00;96616.76;647956;216;31539;-76
2022/02/12 07:35:54;;;;;;;0.40;0.40;;;-2.90;1.40;;;-2.55;100.00;96616.00;648948;216;31529;-76
2022/02/12 07:38:36;;;;;;;0.77;0.70;;;-2.60;1.40;;;-2.37;100.00;96614.95;616438;226;32186;-76
2022/02/12 07:41:18;;;;;;;0.90;0.90;;;-2.40;1.40;;;-2.23;100.00;96609.78;649033;216;31568;-76
2022/02/12 07:44:02;;;;;;;1.10;1.00;;;-2.30;1.40;;;-2.04;100.00;96610.20;647648;216;32460;-75
2022/02/12 07:46:44;;;;;;;2.80;2.60;;;-2.00;1.40;;;-1.88;100.00;96607.03;622376;226;32359;-76
2022/02/12 07:49:27;;;;;;;1.80;1.70;;;-1.80;1.40;;;-1.74;100.00;96604.09;648536;216;31597;-77
2022/02/12 07:52:08;;;;;;;1.02;1.02;;;-1.70;1.40;;;-1.62;100.00;96607.63;648319;212;31534;-75
2022/02/12 07:54:50;;;;;;;0.55;0.50;;;-1.60;1.40;;;-1.48;100.00;96604.13;621391;222;31868;-76
2022/02/12 07:57:32;;;;;;;1.90;1.70;;;-1.50;1.40;;;-1.33;100.00;96601.30;649230;216;31644;-77
2022/02/12 08:00:14;;;;;;;0.70;0.70;;;-1.30;1.40;;;-1.22;100.00;96595.11;622015;222;31955;-76
2022/02/12 08:02:57;;;;;;;1.08;1.00;;;-1.20;1.40;;;-1.12;100.00;96592.17;646332;216;31466;-77
2022/02/12 08:05:41;;;;;;;1.30;0.50;;;-1.10;1.40;;;-1.04;100.00;96586.83;647980;216;31531;-76
2022/02/12 08:08:23;;;;;;;1.00;1.00;;;-1.00;1.40;;;-0.94;100.00;96588.83;646953;216;31558;-76
2022/02/12 08:13:53;;;;;;;1.20;1.00;;;-0.80;1.40;;;-0.65;100.00;96589.16;623134;222;31988;-76
2022/02/12 08:16:35;;;;;;;1.70;0.60;;;-0.60;1.40;;;-0.48;100.00;96593.63;650622;216;31523;-77
2022/02/12 08:19:17;;;;;;;0.65;0.60;;;-0.50;1.40;;;-0.31;100.00;96592.89;647666;216;31570;-76
2022/02/12 08:22:00;;;;;;;1.90;1.50;;;-0.30;1.40;;;-0.21;100.00;96592.95;649276;216;31739;-76
2022/02/12 08:24:42;;;;;;;1.10;1.08;;;-0.20;1.40;;;-0.01;100.00;96587.71;649214;216;31821;-77
2022/02/12 08:27:27;;;;;;;3.80;1.90;;;0.00;1.40;;;0.11;100.00;96586.53;650012;216;31510;-77
2022/02/12 08:30:07;;;;;;;1.50;1.40;;;0.10;1.40;;;0.37;100.00;96579.11;650142;212;31550;-75
2022/02/12 08:32:49;;;;;;;1.00;1.00;;;0.20;1.40;;;0.48;100.00;96576.32;647515;212;42219;-76
2022/02/12 08:35:52;;;;;;;0.80;0.80;;;0.40;1.40;;;0.61;100.00;96573.82;650588;216;31572;-76
2022/02/12 08:38:34;;;;;;;1.95;1.50;;;0.60;1.40;;;0.65;100.00;96570.46;636816;221;31689;-76
2022/02/12 08:41:16;;;;;;;1.77;1.67;;;0.60;1.40;;;0.54;100.00;96572.40;651959;216;31575;-76
2022/02/12 08:44:01;;;;;;;1.30;1.20;;;0.60;1.40;;;0.71;100.00;96570.38;647122;212;31871;-76
2022/02/12 08:46:43;;;;;;;1.55;1.25;;;0.70;1.40;;;0.91;100.00;96564.42;626587;222;42573;-76
2022/02/12 08:49:25;;;;;;;2.30;1.80;;;0.90;1.40;;;0.84;100.00;96565.47;645828;216;42251;-76
2022/02/12 08:52:10;;;;;;;0.77;0.77;;;0.90;1.40;;;1.12;100.00;96565.92;646183;216;31681;-77
2022/02/12 08:54:51;;;;;;;2.58;1.23;;;1.10;1.40;;;1.19;100.00;96565.66;650978;216;31553;-75
2022/02/12 08:57:39;;;;;;;2.50;1.50;;;1.20;1.40;;;1.47;100.00;96569.25;650114;212;32973;-77
2022/02/12 09:00:27;;;;;;;1.35;0.90;;;1.50;1.40;;;1.75;100.00;96570.44;647562;216;32781;-77
2022/02/12 09:03:08;;;;;;;1.55;1.45;;;1.80;1.40;;;1.85;100.00;96571.16;649053;216;31822;-78
2022/02/12 09:05:50;;;;;;;1.87;1.77;;;1.90;1.40;;;1.87;100.00;96564.48;649690;216;31869;-78
2022/02/12 09:08:38;;;;;;;1.33;1.23;;;1.90;1.40;;;2.06;100.00;96559.61;617848;222;32035;-76
2022/02/12 09:11:26;;;;;;;2.55;1.02;;;2.20;1.40;;;2.88;100.00;96556.59;644865;212;31541;-78
2022/02/12 09:14:12;;;;;;;1.40;1.20;;;3.60;1.40;;;3.89;100.00;96554.22;618396;222;31979;-77
2022/02/12 09:16:52;;;;;;;1.30;1.20;;;5.90;1.40;;;4.26;100.00;96555.32;655474;212;31602;-78
2022/02/12 09:19:35;;;;;;;1.20;1.02;;;5.30;1.40;;;5.79;100.00;96556.49;652113;216;31551;-79
2022/02/12 09:22:17;;;;;;;1.30;1.20;;;6.50;1.40;;;7.11;100.00;96541.66;646531;212;31628;-79
2022/02/12 09:24:59;;;;;;;1.10;1.00;;;6.40;1.40;;;5.23;95.49;96542.89;650468;216;31523;-79
2022/02/12 09:27:44;;;;;;;1.67;1.27;;;5.70;1.40;;;5.18;92.80;96545.69;648184;216;31637;-78
2022/02/12 09:30:25;;;;;;;1.83;0.80;;;5.10;1.40;;;5.68;93.40;96540.16;649635;212;31510;-79
2022/02/12 09:35:56;;;;;;;1.37;1.00;;;6.80;1.40;;;6.37;83.88;96526.80;652202;216;31589;-79
2022/02/12 09:38:35;;;;;;;1.60;1.10;;;5.80;1.40;;;6.17;86.26;96526.52;645373;216;42176;-78
2022/02/12 09:41:22;;;;;;;1.40;1.20;;;5.40;1.40;;;6.63;84.72;96523.57;648765;216;31585;-79
2022/02/12 09:44:05;;;;;;;1.40;1.10;;;6.40;1.40;;;6.55;84.02;96524.82;643460;216;42189;-76
2022/02/12 09:47:25;;;;;;;1.10;1.00;;;7.10;1.40;;;8.54;81.37;96505.15;646814;216;43059;-76
2022/02/12 09:50:07;;;;;;;0.80;0.80;;;8.20;1.40;;;6.63;76.23;96522.00;650386;212;31607;-76
2022/02/12 09:52:49;;;;;;;1.53;0.80;;;6.30;1.40;;;7.07;75.63;96517.08;648086;216;31526;-79
2022/02/12 09:55:35;;;;;;;1.50;1.40;;;6.20;1.40;;;7.03;79.43;96508.56;654287;212;33867;-78
2022/02/12 09:58:19;;;;;;;0.80;0.80;;;8.40;1.40;;;7.62;69.85;96513.10;649718;216;31556;-78
2022/02/12 10:01:01;;;;;;;0.90;0.70;;;8.10;1.40;;;6.49;73.98;96517.56;622273;226;33094;-78
2022/02/12 10:03:45;;;;;;;2.40;1.00;;;6.60;1.40;;;6.51;74.03;96515.58;647797;216;31974;-77
2022/02/12 10:06:41;;;;;;;2.93;1.23;;;7.30;1.40;;;7.24;71.76;96504.88;650723;212;23575;-78
2022/02/12 10:09:20;;;;;;;2.30;1.03;;;7.80;1.40;;;8.11;71.94;96498.14;644957;216;31502;-79
2022/02/12 10:12:03;;;;;;;1.12;0.90;;;8.20;1.40;;;7.09;69.81;96503.63;646740;216;31652;-76
2022/02/12 10:14:45;;;;;;;1.43;0.73;;;6.70;1.40;;;7.36;71.51;96500.85;620127;226;38883;-77
2022/02/12 10:17:26;;;;;;;3.27;1.33;;;7.60;1.40;;;8.72;61.93;96492.36;652250;216;34492;-79
2022/02/12 10:20:09;;;;;;;0.75;0.70;;;8.60;1.40;;;11.05;61.29;96484.75;619776;226;32510;-77
2022/02/12 10:22:54;;;;;;;3.50;1.00;;;10.50;1.40;;;9.89;59.53;96490.88;653639;213;32979;-78
2022/02/12 10:25:35;;;;;;;1.30;1.20;;;9.70;1.40;;;7.50;58.18;96492.52;649263;212;31492;-77
2022/02/12 10:28:17;;;;;;;1.50;1.20;;;7.30;1.40;;;9.17;67.33;96488.18;645495;216;31524;-78
2022/02/12 10:31:02;;;;;;;1.87;1.40;;;9.70;1.40;;;9.01;60.49;96490.09;645991;215;31810;-79
2022/02/12 10:35:56;;;;;;;1.17;0.98;;;9.20;1.40;;;10.54;55.80;96477.38;647645;212;31703;-77
2022/02/12 10:38:38;;;;;;;0.90;0.80;;;10.30;1.40;;;9.93;55.22;96471.05;646982;212;31583;-78
2022/02/12 10:41:19;;;;;;;1.42;0.73;;;9.10;1.40;;;9.07;52.55;96466.72;645852;216;31514;-77
2022/02/12 10:44:01;;;;;;;2.20;0.70;;;8.30;1.40;;;8.67;54.75;96464.72;645441;216;31672;-76
2022/02/12 10:46:43;;;;;;;3.20;0.70;;;7.60;1.40;;;10.50;55.51;96456.03;648497;216;31469;-80
2022/02/12 10:49:25;;;;;;;1.25;1.10;;;10.50;1.40;;;9.95;52.64;96448.02;620580;222;31861;-79
2022/02/12 10:52:07;;;;;;;1.05;0.73;;;8.80;1.40;;;9.84;52.59;96447.74;646851;216;31938;-79
2022/02/12 10:54:49;;;;;;;1.10;0.80;;;9.50;1.40;;;7.84;53.31;96449.91;649308;212;31499;-79
2022/02/12 10:57:38;;;;;;;1.73;0.80;;;7.70;1.40;;;8.73;51.38;96445.27;646797;216;31840;-77
2022/02/12 11:00:15;;;;;;;0.90;0.70;;;7.30;1.40;;;9.18;50.91;96440.73;649764;213;31641;-79
2022/02/12 11:03:01;;;;;;;1.00;0.60;;;8.80;1.40;;;10.62;49.06;96437.44;647554;216;34183;-79
2022/02/12 11:05:42;;;;;;;1.10;0.73;;;9.50;1.40;;;8.15;52.46;96421.45;648178;216;31482;-79
2022/02/12 11:08:24;;;;;;;3.70;0.80;;;8.30;1.40;;;9.73;49.63;96416.95;652728;216;23910;-78
2022/02/12 11:11:06;;;;;;;0.82;0.60;;;9.00;1.40;;;8.37;48.99;96413.61;651611;216;31698;-79
2022/02/12 11:13:48;;;;;;;1.50;0.70;;;7.80;1.40;;;8.02;50.94;96407.84;617235;222;42478;-80
2022/02/12 11:16:29;;;;;;;2.90;0.62;;;6.90;1.40;;;10.34;49.88;96397.64;622000;226;33448;-79
2022/02/12 11:19:17;;;;;;;1.10;0.80;;;9.50;1.40;;;8.50;50.03;96403.52;647049;212;32103;-76
2022/02/12 11:22:05;;;;;;;0.85;0.80;;;8.00;1.40;;;8.58;50.17;96404.11;647468;216;42102;-79
2022/02/12 11:27:33;;;;;;;0.70;0.70;;;8.10;1.40;;;11.49;47.64;96391.42;649140;216;42105;-79
2022/02/12 11:30:19;;;;;;;1.25;0.73;;;11.20;1.40;;;11.49;46.60;96381.92;618686;222;31943;-77
2022/02/12 11:32:59;;;;;;;1.37;0.80;;;11.40;1.40;;;9.21;46.02;96397.66;649702;212;32014;-78
2022/02/12 11:36:19;;;;;;;1.30;0.80;;;8.80;1.40;;;11.59;46.86;96383.31;649869;212;31811;-76
2022/02/12 11:39:13;;;;;;;0.90;0.68;;;11.70;1.40;;;13.54;42.12;96374.08;648851;212;31653;-77
2022/02/12 11:41:55;;;;;;;0.60;0.60;;;12.80;1.40;;;12.37;38.60;96369.17;618832;226;32061;-78
2022/02/12 11:44:43;;;;;;;2.60;0.95;;;9.00;1.40;;;11.42;42.30;96367.59;647354;212;32018;-79
2022/02/12 11:47:24;;;;;;;1.63;0.77;;;9.50;1.40;;;10.22;44.23;96366.34;642706;218;31539;-79
2022/02/12 11:50:14;;;;;;;2.40;0.80;;;8.60;1.40;;;11.23;46.33;96361.14;649602;216;31607;-77
2022/02/12 11:53:02;;;;;;;0.82;0.70;;;11.70;1.40;;;14.01;39.89;96360.38;647537;216;31461;-77
2022/02/12 11:55:44;;;;;;;0.90;0.62;;;11.90;1.40;;;10.53;43.12;96364.05;651563;216;31530;-78
2022/02/12 11:58:58;;;;;;;1.10;0.80;;;9.00;1.40;;;11.38;44.41;96355.64;617035;226;31883;-77
2022/02/12 12:01:42;;;;;;;0.90;0.60;;;11.30;1.40;;;10.54;43.83;96352.27;645826;212;31534;-78
2022/02/12 12:04:30;;;;;;;0.80;0.80;;;9.70;1.40;;;9.75;44.94;96354.73;651068;216;31508;-79